Time;durP1;ratioP1;P1;durP2;ratioP2;P2;SDS_P1;SDS_P2;PMS_P1;PMS_P2;Temp;Humidity;BMP_temperature;BMP_pressure;BME280_temperature;BME280_humidity;BME280_pressure;Samples;Min_cycle;Max_cycle;Signal;HPM_P1;HPM_P2
2021/08/16 00:02:47;;;;;;;22.30;13.03;;;;;;;17.48;70.74;100013.55;1752435;82;21314;-83
2021/08/16 00:05:54;;;;;;;22.62;11.28;;;;;;;17.38;71.09;100011.86;1752661;82;21886;-83
2021/08/16 00:09:00;;;;;;;17.82;11.22;;;;;;;17.31;71.44;100016.59;1752599;82;21813;-83
2021/08/16 00:12:06;;;;;;;25.92;11.70;;;;;;;17.24;71.69;100019.42;1753677;82;21331;-84
2021/08/16 00:15:13;;;;;;;19.92;10.93;;;;;;;17.22;71.65;100022.97;1752487;82;21200;-84
2021/08/16 00:18:18;;;;;;;28.42;11.05;;;;;;;17.25;71.80;100028.02;1753888;82;21712;-83
2021/08/16 00:21:25;;;;;;;20.75;10.65;;;;;;;17.25;71.72;100031.33;1752755;82;21132;-82
2021/08/16 00:24:30;;;;;;;26.73;11.12;;;;;;;17.30;71.54;100028.72;1753944;82;21326;-83
2021/08/16 00:27:36;;;;;;;31.35;10.63;;;;;;;17.38;71.20;100021.53;1752517;81;21200;-82
2021/08/16 00:30:42;;;;;;;17.92;10.43;;;;;;;17.47;70.84;100011.87;1752443;82;21748;-83
2021/08/16 00:33:47;;;;;;;24.80;10.58;;;;;;;17.52;70.55;100007.88;1752666;82;21246;-83
2021/08/16 00:36:53;;;;;;;19.42;9.63;;;;;;;17.55;70.39;100010.70;1752801;82;21339;-83
2021/08/16 00:39:58;;;;;;;20.55;9.00;;;;;;;17.56;70.21;100010.50;1752831;82;21196;-83
2021/08/16 00:43:04;;;;;;;23.35;8.80;;;;;;;17.56;70.02;100017.95;1752733;82;21212;-82
2021/08/16 00:46:10;;;;;;;18.60;9.25;;;;;;;17.58;69.89;100010.26;1753231;82;21327;-83
2021/08/16 00:49:16;;;;;;;20.12;9.20;;;;;;;17.60;69.79;100013.12;1752690;82;21752;-83
2021/08/16 00:52:24;;;;;;;25.00;10.00;;;;;;;17.63;69.71;100016.78;1753864;82;21247;-82
2021/08/16 00:55:31;;;;;;;21.42;10.13;;;;;;;17.63;69.71;100011.80;1753782;82;21212;-83
2021/08/16 00:58:39;;;;;;;21.10;10.53;;;;;;;17.63;69.68;100008.48;1754152;81;21311;-82
2021/08/16 01:01:47;;;;;;;20.37;10.78;;;;;;;17.63;69.64;100008.48;1747625;82;21764;-83
2021/08/16 01:04:54;;;;;;;19.98;10.48;;;;;;;17.63;69.65;100009.87;1747625;82;21227;-83
2021/08/16 01:07:59;;;;;;;25.27;11.97;;;;;;;17.65;69.78;100012.97;1749202;82;21728;-82
2021/08/16 01:11:06;;;;;;;28.47;12.05;;;;;;;17.63;70.00;100009.87;1749176;82;21315;-83
2021/08/16 01:14:13;;;;;;;28.02;12.45;;;;;;;17.60;70.19;100007.59;1747724;82;21200;-82
2021/08/16 01:17:19;;;;;;;27.65;12.98;;;;;;;17.59;70.39;100007.80;1747704;82;21834;-82
2021/08/16 01:20:27;;;;;;;31.75;13.15;;;;;;;17.55;70.59;100011.58;1747661;82;21200;-83
2021/08/16 01:23:36;;;;;;;24.63;13.20;;;;;;;17.53;70.71;100006.80;1748945;82;21303;-83
2021/08/16 01:26:42;;;;;;;19.87;11.35;;;;;;;17.53;70.82;100002.65;1748045;82;21229;-82
2021/08/16 01:29:47;;;;;;;27.37;12.37;;;;;;;17.55;70.82;100006.56;1749099;82;21314;-82
2021/08/16 01:32:53;;;;;;;23.67;12.13;;;;;;;17.55;70.85;100003.28;1747490;82;21192;-81
2021/08/16 01:36:00;;;;;;;30.75;13.08;;;;;;;17.55;70.97;99997.75;1748645;82;21323;-83
2021/08/16 01:39:05;;;;;;;26.35;14.45;;;;;;;17.54;71.18;100000.19;1749044;82;21307;-82
2021/08/16 01:42:11;;;;;;;41.37;14.75;;;;;;;17.53;71.46;100005.41;1748738;82;21414;-83
2021/08/16 01:45:19;;;;;;;28.57;14.40;;;;;;;17.52;71.58;100001.51;1749019;82;22548;-83
2021/08/16 01:48:24;;;;;;;32.65;16.35;;;;;;;17.51;71.68;100005.35;1749292;82;21318;-83
2021/08/16 01:51:31;;;;;;;33.80;15.00;;;;;;;17.48;71.79;100006.64;1748898;82;21765;-82
2021/08/16 01:54:36;;;;;;;37.93;16.70;;;;;;;17.45;71.97;100005.70;1749060;82;21899;-81
2021/08/16 01:57:41;;;;;;;39.67;15.30;;;;;;;17.40;72.21;100005.55;1747641;82;21879;-82
2021/08/16 02:00:47;;;;;;;36.17;15.93;;;;;;;17.37;72.40;100011.55;1748325;80;21275;-83
2021/08/16 02:03:55;;;;;;;34.27;15.28;;;;;;;17.33;72.45;100006.17;1748963;82;21268;-83
2021/08/16 02:07:02;;;;;;;23.05;13.13;;;;;;;17.30;72.46;100009.38;1748297;82;21941;-83
2021/08/16 02:10:08;;;;;;;28.95;15.50;;;;;;;17.26;72.43;100013.66;1748954;82;21342;-82
2021/08/16 02:13:13;;;;;;;35.05;14.68;;;;;;;17.22;72.61;100006.89;1748497;82;21224;-84
2021/08/16 02:16:19;;;;;;;38.30;15.80;;;;;;;17.19;72.93;100010.98;1749013;82;21839;-83
2021/08/16 02:19:24;;;;;;;35.70;15.50;;;;;;;17.17;73.23;100005.34;1749235;82;21315;-83
2021/08/16 02:22:30;;;;;;;36.08;16.50;;;;;;;17.14;73.49;100007.20;1749027;82;21307;-83
2021/08/16 02:25:35;;;;;;;39.67;16.15;;;;;;;17.09;73.77;100004.58;1747407;82;21201;-83
2021/08/16 02:28:41;;;;;;;29.35;14.13;;;;;;;17.08;73.97;100016.72;1748142;82;21734;-83
2021/08/16 02:31:46;;;;;;;37.00;16.75;;;;;;;17.08;74.00;100018.09;1749091;82;21350;-84
2021/08/16 02:34:53;;;;;;;35.75;16.10;;;;;;;17.08;73.98;100013.95;1749094;82;21827;-83
2021/08/16 02:37:58;;;;;;;37.98;17.15;;;;;;;17.07;73.87;100018.30;1747769;82;21276;-84
2021/08/16 02:41:04;;;;;;;30.23;16.27;;;;;;;17.06;73.98;100031.27;1749035;82;21343;-84
2021/08/16 02:44:10;;;;;;;32.80;16.25;;;;;;;17.02;74.11;100023.13;1748206;82;21351;-84
2021/08/16 02:47:16;;;;;;;34.35;15.80;;;;;;;17.02;74.16;100027.27;1748712;82;21764;-84
2021/08/16 02:50:21;;;;;;;29.45;14.40;;;;;;;17.02;74.11;100030.03;1748998;82;21783;-83
2021/08/16 02:53:27;;;;;;;35.30;15.75;;;;;;;17.04;73.94;100033.97;1748942;82;21200;-83
2021/08/16 02:56:32;;;;;;;25.32;13.08;;;;;;;17.05;73.81;100036.50;1749070;82;21299;-84
2021/08/16 02:59:37;;;;;;;30.25;12.73;;;;;;;17.07;73.63;100032.95;1747855;82;21334;-84
2021/08/16 03:02:43;;;;;;;21.77;11.70;;;;;;;17.12;73.28;100037.81;1747885;82;21225;-84
2021/08/16 03:05:50;;;;;;;20.60;11.18;;;;;;;17.24;72.77;100040.70;1749433;82;21300;-83
2021/08/16 03:08:56;;;;;;;29.07;11.30;;;;;;;17.41;72.21;100035.42;1747641;82;21355;-83
2021/08/16 03:12:02;;;;;;;29.00;11.48;;;;;;;17.52;71.58;100037.45;1748984;82;21316;-82
2021/08/16 03:15:08;;;;;;;27.42;10.72;;;;;;;17.62;71.15;100035.84;1747800;82;21232;-83
2021/08/16 03:18:15;;;;;;;19.95;11.08;;;;;;;17.74;70.68;100030.98;1747615;82;22478;-83
2021/08/16 03:21:22;;;;;;;26.02;11.38;;;;;;;17.87;70.19;100030.81;1749003;82;21316;-82
2021/08/16 03:24:28;;;;;;;27.10;11.57;;;;;;;18.01;69.60;100025.96;1749045;82;21300;-82
2021/08/16 03:27:33;;;;;;;23.05;11.03;;;;;;;18.17;69.05;100030.04;1748681;82;21241;-82
2021/08/16 03:30:38;;;;;;;19.48;10.58;;;;;;;18.32;68.33;100040.16;1747303;82;21339;-80
2021/08/16 03:33:44;;;;;;;18.12;10.03;;;;;;;18.50;67.67;100042.89;1748969;82;21311;-81
2021/08/16 03:36:49;;;;;;;21.77;10.32;;;;;;;18.68;67.22;100046.66;1749149;82;21232;-82
2021/08/16 03:39:54;;;;;;;18.85;10.38;;;;;;;18.79;66.83;100050.06;1749060;82;21196;-82
2021/08/16 03:43:01;;;;;;;21.85;10.10;;;;;;;18.90;66.20;100046.47;1748984;82;21192;-81
2021/08/16 03:46:07;;;;;;;19.25;10.30;;;;;;;19.03;65.30;100040.72;1748775;82;21331;-82
2021/08/16 03:49:13;;;;;;;22.00;9.73;;;;;;;19.17;64.77;100040.50;1748011;82;21172;-82
2021/08/16 03:52:19;;;;;;;16.05;9.15;;;;;;;19.27;64.73;100048.52;1749056;82;21228;-83
2021/08/16 03:55:25;;;;;;;19.40;9.75;;;;;;;19.38;64.52;100064.86;1749179;82;21620;-83
2021/08/16 03:58:31;;;;;;;20.70;10.08;;;;;;;19.46;64.08;100052.58;1748445;82;21378;-83
2021/08/16 04:01:35;;;;;;;27.07;10.70;;;;;;;19.58;63.87;100053.44;1748099;82;21960;-83
2021/08/16 04:04:42;;;;;;;18.00;9.43;;;;;;;19.71;63.76;100060.67;1727378;83;21200;-84
2021/08/16 04:07:43;;;;;;;22.20;9.90;;;;;;;19.86;63.60;100059.11;1725892;83;21263;-84
2021/08/16 04:10:50;;;;;;;18.73;10.05;;;;;;;20.07;63.11;100068.72;1726801;83;22051;-83
2021/08/16 04:13:55;;;;;;;22.00;9.55;;;;;;;20.24;62.56;100073.53;1727336;83;21307;-84
2021/08/16 04:17:01;;;;;;;19.07;10.15;;;;;;;20.39;62.20;100078.00;1726017;83;21255;-82
2021/08/16 04:20:07;;;;;;;19.32;9.95;;;;;;;20.51;61.84;100082.98;1727379;83;21196;-83
2021/08/16 04:23:11;;;;;;;23.67;9.60;;;;;;;20.63;61.33;100075.46;1727123;83;21354;-83
2021/08/16 04:26:17;;;;;;;19.12;9.95;;;;;;;20.77;61.09;100082.11;1727256;83;21204;-83
2021/08/16 04:29:22;;;;;;;17.57;9.15;;;;;;;20.92;60.56;100075.44;1726224;83;21237;-83
2021/08/16 04:32:27;;;;;;;25.80;10.23;;;;;;;21.04;60.22;100074.84;1727115;83;21346;-82
2021/08/16 04:35:33;;;;;;;22.27;11.25;;;;;;;21.18;59.77;100074.81;1726903;83;21358;-83
2021/08/16 04:38:38;;;;;;;22.50;9.78;;;;;;;21.32;58.77;100081.47;1726921;83;21205;-81
2021/08/16 04:41:44;;;;;;;20.62;9.78;;;;;;;21.46;58.67;100082.83;1727173;83;21315;-83
2021/08/16 04:44:51;;;;;;;24.23;10.13;;;;;;;21.63;57.64;100081.40;1727090;83;21358;-83
2021/08/16 04:47:57;;;;;;;19.17;10.13;;;;;;;21.78;56.75;100082.18;1727010;83;21822;-82
2021/08/16 04:51:02;;;;;;;20.30;9.63;;;;;;;21.92;56.37;100081.59;1726901;83;21839;-83
2021/08/16 04:54:08;;;;;;;17.12;8.70;;;;;;;22.05;55.71;100075.33;1727110;83;21318;-82
2021/08/16 04:57:13;;;;;;;15.20;8.33;;;;;;;22.16;54.93;100078.05;1727102;83;21609;-82
2021/08/16 05:00:25;;;;;;;17.87;9.55;;;;;;;22.29;54.65;100070.39;1737069;80;21219;-81
2021/08/16 05:03:29;;;;;;;15.58;8.20;;;;;;;22.45;54.96;100079.24;1739285;81;21338;-81
2021/08/16 05:06:35;;;;;;;18.25;8.33;;;;;;;22.63;53.70;100083.09;1724785;82;21298;-82
2021/08/16 05:09:41;;;;;;;18.07;8.50;;;;;;;22.81;53.21;100081.02;1733580;82;21268;-82
2021/08/16 05:12:47;;;;;;;17.05;8.60;;;;;;;23.02;52.86;100078.78;1719021;82;22302;-82
2021/08/16 05:15:53;;;;;;;17.07;8.00;;;;;;;23.21;51.50;100087.61;1727296;82;21310;-82
2021/08/16 05:18:58;;;;;;;17.05;8.03;;;;;;;23.34;51.14;100092.75;1727275;82;21314;-80
2021/08/16 05:22:04;;;;;;;20.20;8.18;;;;;;;23.40;49.85;100093.63;1726021;82;21292;-79
2021/08/16 05:25:11;;;;;;;18.00;7.58;;;;;;;23.49;49.85;100091.20;1728506;82;21225;-81
2021/08/16 05:28:18;;;;;;;18.12;8.20;;;;;;;23.63;50.36;100089.07;1722413;83;21322;-81
2021/08/16 05:31:23;;;;;;;17.77;7.70;;;;;;;23.74;49.23;100093.36;1723353;82;21954;-82
2021/08/16 05:34:30;;;;;;;15.40;8.15;;;;;;;23.79;48.98;100090.61;1738426;82;21303;-80
2021/08/16 05:37:37;;;;;;;16.37;7.33;;;;;;;23.87;48.36;100093.73;1703649;82;21301;-81
2021/08/16 05:40:42;;;;;;;19.30;7.83;;;;;;;23.93;48.78;100090.41;1719831;82;21137;-82
2021/08/16 05:43:48;;;;;;;20.00;7.45;;;;;;;23.97;48.42;100091.00;1719029;82;21172;-80
2021/08/16 05:46:54;;;;;;;19.45;7.95;;;;;;;23.93;48.56;100101.59;1726637;82;21344;-81
2021/08/16 05:50:00;;;;;;;14.28;8.13;;;;;;;23.87;48.93;100095.14;1737556;82;21311;-81
2021/08/16 05:53:05;;;;;;;17.15;8.18;;;;;;;23.84;49.05;100100.41;1734096;82;21287;-80
2021/08/16 05:56:11;;;;;;;15.78;7.97;;;;;;;23.88;48.90;100098.77;1732886;82;21343;-80
2021/08/16 05:59:16;;;;;;;16.35;6.85;;;;;;;24.00;48.33;100107.80;1725173;82;21168;-83
2021/08/16 06:02:21;;;;;;;16.55;6.95;;;;;;;24.13;48.08;100108.69;1721033;83;21945;-81
2021/08/16 06:05:28;;;;;;;12.60;7.30;;;;;;;24.30;48.08;100105.72;1735226;80;21319;-80
2021/08/16 06:08:33;;;;;;;11.25;6.45;;;;;;;24.48;48.46;100112.82;1748698;80;21301;-80
2021/08/16 06:11:38;;;;;;;15.65;6.22;;;;;;;24.70;47.19;100107.88;1741390;80;21943;-82
2021/08/16 06:14:44;;;;;;;11.93;6.40;;;;;;;24.91;45.78;100114.92;1744111;80;21211;-82
2021/08/16 06:17:52;;;;;;;14.05;5.78;;;;;;;25.07;44.16;100121.38;1762852;80;21271;-80
2021/08/16 06:20:57;;;;;;;14.68;6.40;;;;;;;25.15;43.95;100119.48;1740099;81;21302;-82
2021/08/16 06:24:04;;;;;;;8.10;5.05;;;;;;;25.34;43.77;100122.02;1747151;80;21172;-81
2021/08/16 06:27:11;;;;;;;12.50;5.08;;;;;;;25.51;42.92;100123.16;1747928;80;21314;-82
2021/08/16 06:30:17;;;;;;;9.28;5.05;;;;;;;25.63;41.86;100113.90;1750107;80;21320;-81
2021/08/16 06:33:24;;;;;;;10.35;5.05;;;;;;;25.75;41.33;100119.23;1744267;80;21307;-82
2021/08/16 06:36:37;;;;;;;7.85;4.85;;;;;;;25.89;40.77;100125.13;1747504;80;21292;-82
2021/08/16 06:39:38;;;;;;;14.33;4.87;;;;;;;26.12;40.75;100123.13;1743419;80;21347;-82
2021/08/16 06:42:45;;;;;;;10.18;5.17;;;;;;;26.24;39.07;100125.05;1752026;80;21279;-81
2021/08/16 06:45:51;;;;;;;10.32;4.90;;;;;;;26.28;39.23;100124.48;1708239;83;22077;-83
2021/08/16 06:48:58;;;;;;;11.15;5.10;;;;;;;26.31;39.31;100123.36;1712636;83;21382;-81
2021/08/16 06:52:04;;;;;;;10.68;5.55;;;;;;;26.38;38.65;100122.48;1679135;83;21281;-80
2021/08/16 06:55:10;;;;;;;10.50;4.65;;;;;;;26.38;38.54;100127.25;1690090;83;21317;-83
2021/08/16 06:58:16;;;;;;;5.42;3.87;;;;;;;26.45;38.69;100130.07;1719736;82;21201;-80
2021/08/16 07:01:33;;;;;;;8.15;4.33;;;;;;;26.58;38.42;100121.58;1724230;82;21152;-82
2021/08/16 07:04:42;;;;;;;9.23;4.20;;;;;;;26.69;38.02;100120.43;1735294;81;21367;-82
2021/08/16 07:07:52;;;;;;;7.90;4.10;;;;;;;26.75;38.09;100116.47;1712520;81;21858;-81
2021/08/16 07:10:55;;;;;;;5.83;4.08;;;;;;;26.76;37.79;100123.75;1690859;83;21332;-82
2021/08/16 07:14:05;;;;;;;5.87;3.67;;;;;;;26.80;37.85;100125.42;1717345;82;21346;-82
2021/08/16 07:17:10;;;;;;;6.10;3.62;;;;;;;26.86;37.65;100124.83;1726569;81;21272;-81
2021/08/16 07:20:15;;;;;;;5.30;3.30;;;;;;;26.98;37.26;100133.75;1707217;82;21201;-82
2021/08/16 07:23:21;;;;;;;5.45;3.65;;;;;;;27.19;37.35;100120.44;1712214;81;21201;-81
2021/08/16 07:26:27;;;;;;;7.67;4.87;;;;;;;27.36;37.20;100115.84;1706195;83;21308;-80
2021/08/16 07:29:32;;;;;;;6.00;4.37;;;;;;;27.53;38.08;100116.28;1688602;83;21856;-79
2021/08/16 07:32:39;;;;;;;7.35;4.30;;;;;;;27.73;38.28;100120.91;1716330;82;21375;-82
2021/08/16 07:35:45;;;;;;;10.03;4.90;;;;;;;27.85;38.13;100117.12;1718904;81;21304;-82
2021/08/16 07:38:50;;;;;;;11.10;5.37;;;;;;;27.93;38.57;100120.70;1711150;82;21327;-80
2021/08/16 07:41:55;;;;;;;11.08;4.92;;;;;;;27.94;37.73;100124.34;1711732;81;21307;-81
2021/08/16 07:45:00;;;;;;;10.70;4.47;;;;;;;27.81;37.92;100125.89;1710019;82;21213;-81
2021/08/16 07:48:06;;;;;;;7.08;4.28;;;;;;;27.78;38.26;100118.62;1722764;81;21293;-82
2021/08/16 07:51:13;;;;;;;14.73;5.65;;;;;;;27.87;38.18;100113.47;1722243;81;21224;-82
2021/08/16 07:54:20;;;;;;;11.35;5.58;;;;;;;27.95;38.05;100120.42;1710391;81;21315;-81
2021/08/16 07:57:27;;;;;;;8.30;5.10;;;;;;;27.97;38.15;100109.71;1693984;83;21351;-82
2021/08/16 08:00:35;;;;;;;9.08;4.70;;;;;;;28.12;37.79;100096.05;1718721;82;22268;-82
2021/08/16 08:03:41;;;;;;;7.37;4.40;;;;;;;28.35;37.50;100101.45;1701542;81;21249;-81
2021/08/16 08:06:48;;;;;;;15.13;5.37;;;;;;;28.50;37.36;100094.22;1716908;82;21286;-81
2021/08/16 08:09:54;;;;;;;12.95;5.30;;;;;;;28.70;37.76;100095.39;1717261;82;21212;-80
2021/08/16 08:13:00;;;;;;;10.00;4.67;;;;;;;28.91;36.71;100096.50;1678123;83;21239;-80
2021/08/16 08:16:13;;;;;;;10.93;6.05;;;;;;;28.87;36.79;100102.47;1726254;80;21292;-81
2021/08/16 08:19:19;;;;;;;17.27;6.15;;;;;;;28.82;37.28;100089.88;1722030;80;21156;-80
2021/08/16 08:22:25;;;;;;;12.78;8.25;;;;;;;28.84;37.68;100090.39;1721064;81;21607;-80
2021/08/16 08:25:31;;;;;;;13.50;6.95;;;;;;;28.82;38.53;100091.28;1699871;82;21312;-80
2021/08/16 08:28:36;;;;;;;10.90;7.40;;;;;;;28.74;39.42;100082.36;1730779;80;21558;-80
2021/08/16 08:31:44;;;;;;;14.58;7.17;;;;;;;28.74;39.42;100082.36;1727191;80;21508;-83
2021/08/16 08:34:50;;;;;;;14.93;8.05;;;;;;;28.88;39.36;100065.56;1692602;82;21308;-82
2021/08/16 08:37:56;;;;;;;13.70;7.70;;;;;;;28.88;39.36;100065.56;1731425;80;21279;-82
2021/08/16 08:41:06;;;;;;;10.98;7.78;;;;;;;28.90;38.97;100061.05;1735871;80;21382;-81
2021/08/16 08:44:13;;;;;;;18.87;8.23;;;;;;;28.83;39.24;100074.08;1742026;81;21193;-82
2021/08/16 08:47:21;;;;;;;16.42;8.70;;;;;;;28.68;39.65;100063.87;1698115;83;21344;-82
2021/08/16 08:50:30;;;;;;;11.88;7.80;;;;;;;28.54;40.23;100065.77;1737477;80;21256;-82
2021/08/16 08:53:43;;;;;;;15.53;8.20;;;;;;;28.47;40.87;100059.11;1701557;82;21268;-81
2021/08/16 08:56:48;;;;;;;12.63;7.83;;;;;;;28.40;41.25;100051.59;1746624;80;21284;-82
2021/08/16 08:59:55;;;;;;;17.32;8.70;;;;;;;28.38;41.12;100055.30;1728976;80;21366;-83
2021/08/16 09:03:08;;;;;;;12.33;8.43;;;;;;;28.36;41.44;100056.72;1691388;83;21189;-82
2021/08/16 09:06:16;;;;;;;13.72;8.83;;;;;;;28.41;41.27;100041.17;1734190;81;21742;-83
2021/08/16 09:09:21;;;;;;;14.30;8.98;;;;;;;28.46;42.20;100057.41;1758945;80;21307;-80
2021/08/16 09:12:42;;;;;;;18.57;9.45;;;;;;;28.50;41.64;100054.84;1746761;80;21882;-79
2021/08/16 09:15:52;;;;;;;12.68;8.58;;;;;;;28.56;41.98;100048.03;1712069;83;21178;-81
2021/08/16 09:18:59;;;;;;;13.68;8.03;;;;;;;28.62;41.77;100048.22;1715061;81;21234;-82
2021/08/16 09:22:09;;;;;;;14.45;8.70;;;;;;;28.55;42.46;100049.14;1728059;81;21970;-82
2021/08/16 09:25:17;;;;;;;17.70;10.80;;;;;;;28.50;42.59;100049.22;1745547;80;21267;-82
2021/08/16 09:28:34;;;;;;;20.97;10.95;;;;;;;28.51;42.32;100041.03;1759084;80;21696;-82
2021/08/16 09:31:40;;;;;;;17.87;9.83;;;;;;;28.62;42.61;100050.20;1725917;82;21372;-82
2021/08/16 09:34:53;;;;;;;22.07;12.50;;;;;;;28.63;42.99;100051.30;1704997;82;21291;-82
2021/08/16 09:38:05;;;;;;;19.37;11.80;;;;;;;28.68;42.99;100047.00;1708820;81;21346;-84
2021/08/16 09:41:16;;;;;;;19.17;11.40;;;;;;;28.78;42.33;100042.62;1740441;80;21296;-82
2021/08/16 09:44:22;;;;;;;18.05;11.78;;;;;;;28.80;41.26;100035.88;1737761;80;21267;-82
2021/08/16 09:47:28;;;;;;;20.37;11.43;;;;;;;28.80;41.76;100040.10;1738827;80;21189;-81
2021/08/16 09:50:55;;;;;;;19.60;11.38;;;;;;;28.80;41.95;100041.51;1746015;80;21278;-83
2021/08/16 09:54:00;;;;;;;18.23;11.30;;;;;;;28.85;41.20;100049.30;1747073;80;21252;-80
2021/08/16 09:57:09;;;;;;;16.60;10.23;;;;;;;28.88;41.33;100050.08;1741942;80;21659;-81
2021/08/16 10:00:15;;;;;;;19.95;10.18;;;;;;;28.88;41.33;100050.08;1723041;81;21961;-79
2021/08/16 10:03:25;;;;;;;20.82;10.78;;;;;;;28.93;40.69;100050.57;1724105;82;21764;-80
2021/08/16 10:06:31;;;;;;;18.97;10.90;;;;;;;28.94;40.81;100043.83;1763075;80;21183;-82
2021/08/16 10:09:38;;;;;;;15.72;10.53;;;;;;;29.07;40.25;100052.92;1737008;80;21304;-81
2021/08/16 10:12:45;;;;;;;20.77;9.95;;;;;;;29.07;40.25;100052.92;1692651;83;21515;-81
2021/08/16 10:15:52;;;;;;;24.12;10.00;;;;;;;29.14;39.06;100046.92;1742573;80;21244;-80
2021/08/16 10:19:08;;;;;;;17.70;9.90;;;;;;;29.21;39.42;100048.18;1733055;82;21181;-80
2021/08/16 10:22:15;;;;;;;17.70;9.65;;;;;;;29.28;39.33;100054.28;1732339;80;21205;-81
2021/08/16 10:25:24;;;;;;;18.00;8.70;;;;;;;29.31;38.24;100057.61;1742021;80;21201;-82
2021/08/16 10:28:37;;;;;;;14.90;8.08;;;;;;;29.29;37.22;100043.84;1744945;80;21254;-82
2021/08/16 10:31:48;;;;;;;14.93;9.28;;;;;;;29.35;38.14;100049.64;1715349;81;21229;-83
2021/08/16 10:34:52;;;;;;;17.67;10.03;;;;;;;29.45;37.89;100038.77;1692620;84;21927;-80
2021/08/16 10:37:58;;;;;;;14.65;9.58;;;;;;;29.49;38.27;100046.30;1729427;82;21879;-82
2021/08/16 10:41:05;;;;;;;15.72;10.05;;;;;;;29.53;39.06;100049.34;1675489;84;21345;-80
2021/08/16 10:44:19;;;;;;;21.90;10.25;;;;;;;29.54;38.51;100042.02;1691628;84;21314;-80
2021/08/16 10:47:35;;;;;;;23.92;10.85;;;;;;;29.59;39.16;100044.48;1698667;83;21323;-80
2021/08/16 10:50:40;;;;;;;20.48;10.28;;;;;;;29.56;39.80;100043.13;1706970;80;21669;-80
2021/08/16 10:54:00;;;;;;;15.63;9.05;;;;;;;29.54;39.12;100043.97;1738005;80;21353;-80
2021/08/16 10:57:07;;;;;;;22.02;10.30;;;;;;;29.53;38.99;100038.91;1725882;81;21331;-79
2021/08/16 11:00:14;;;;;;;19.60;9.48;;;;;;;29.44;39.09;100038.52;1722486;81;21350;-79
2021/08/16 11:03:19;;;;;;;17.52;8.70;;;;;;;29.37;39.62;100039.50;1697253;82;21153;-79
2021/08/16 11:06:24;;;;;;;18.10;10.08;;;;;;;29.32;38.21;100039.02;1675685;84;21329;-80
2021/08/16 11:09:33;;;;;;;15.40;9.03;;;;;;;29.23;38.93;100033.23;1678663;83;21305;-80
2021/08/16 11:12:45;;;;;;;15.68;9.23;;;;;;;29.26;39.28;100031.20;1740549;80;22002;-80
2021/08/16 11:15:51;;;;;;;14.70;9.85;;;;;;;29.29;39.46;100022.14;1739501;80;21716;-80
2021/08/16 11:19:01;;;;;;;27.75;9.55;;;;;;;29.35;39.15;100023.45;1726554;81;21212;-79
2021/08/16 11:22:08;;;;;;;31.30;9.98;;;;;;;29.40;38.71;100026.19;1731462;80;21810;-80
2021/08/16 11:25:15;;;;;;;24.15;9.95;;;;;;;29.48;38.44;100024.08;1686404;82;21214;-79
2021/08/16 11:28:23;;;;;;;22.25;8.80;;;;;;;29.59;38.36;100022.77;1706293;82;21339;-79
2021/08/16 11:31:30;;;;;;;19.12;9.75;;;;;;;29.73;37.63;100020.81;1686409;83;21212;-82
2021/08/16 11:34:56;;;;;;;14.10;8.53;;;;;;;29.83;37.76;100021.22;1687402;84;21326;-82
2021/08/16 11:38:00;;;;;;;16.93;9.28;;;;;;;29.93;37.74;100013.13;1697688;84;21635;-85
2021/08/16 11:41:17;;;;;;;26.95;10.08;;;;;;;30.00;37.47;100024.81;1694556;83;21642;-81
2021/08/16 11:44:24;;;;;;;18.10;9.90;;;;;;;29.96;37.24;100021.78;1734308;80;21303;-82
2021/08/16 11:47:43;;;;;;;20.57;9.50;;;;;;;29.95;37.89;100018.70;1735476;80;21192;-82
2021/08/16 11:50:49;;;;;;;17.27;10.10;;;;;;;30.02;37.62;100030.42;1736703;80;21228;-82
2021/08/16 11:53:56;;;;;;;13.75;9.25;;;;;;;29.96;37.07;100014.73;1734825;80;21258;-82
2021/08/16 11:57:05;;;;;;;20.37;9.75;;;;;;;29.84;37.05;100017.82;1729395;81;21290;-82
2021/08/16 12:00:12;;;;;;;16.27;9.25;;;;;;;29.66;37.31;100013.93;1733642;80;21380;-82
2021/08/16 12:03:17;;;;;;;19.80;10.05;;;;;;;29.58;37.90;100016.87;1751081;80;21283;-81
2021/08/16 12:06:23;;;;;;;19.25;9.70;;;;;;;29.56;37.98;100010.73;1738925;80;21358;-80
2021/08/16 12:09:41;;;;;;;16.77;9.30;;;;;;;29.67;37.90;100007.97;1740192;80;21232;-80
2021/08/16 12:12:46;;;;;;;21.68;10.48;;;;;;;29.90;37.16;100007.53;1744910;80;21264;-81
2021/08/16 12:15:53;;;;;;;19.85;10.15;;;;;;;30.08;37.31;100000.13;1721481;81;21195;-80
2021/08/16 12:19:04;;;;;;;13.35;8.38;;;;;;;30.21;37.23;100000.73;1745380;80;21166;-81
2021/08/16 12:22:16;;;;;;;19.95;9.80;;;;;;;30.30;37.33;100002.20;1760347;80;21830;-81
2021/08/16 12:25:21;;;;;;;12.80;8.50;;;;;;;30.29;37.51;99999.97;1745881;80;21204;-83
2021/08/16 12:28:26;;;;;;;14.05;9.03;;;;;;;30.36;37.15;99998.73;1753346;80;21239;-80
2021/08/16 12:31:34;;;;;;;15.05;9.20;;;;;;;30.24;37.46;100002.90;1748071;80;21336;-80
2021/08/16 12:34:40;;;;;;;16.82;9.60;;;;;;;30.03;37.63;99998.82;1758657;80;21842;-80
2021/08/16 12:37:45;;;;;;;18.37;9.88;;;;;;;29.82;37.88;100000.37;1742230;80;21196;-81
2021/08/16 12:40:51;;;;;;;19.48;9.85;;;;;;;29.74;38.31;99995.73;1754570;80;21184;-81
2021/08/16 12:43:58;;;;;;;18.50;10.00;;;;;;;29.70;38.12;99991.86;1747364;80;21315;-85
2021/08/16 12:47:11;;;;;;;23.40;10.15;;;;;;;29.68;38.48;99992.73;1744847;80;21169;-85
2021/08/16 12:50:17;;;;;;;18.67;9.55;;;;;;;29.72;38.69;99999.41;1753145;80;21212;-84
2021/08/16 12:53:22;;;;;;;17.85;9.68;;;;;;;29.76;38.59;99997.65;1705400;83;21386;-83
2021/08/16 12:56:28;;;;;;;14.98;9.65;;;;;;;29.73;38.36;99992.63;1736418;81;21321;-81
2021/08/16 12:59:35;;;;;;;14.63;8.50;;;;;;;29.75;38.47;99993.74;1741560;80;21178;-81
2021/08/16 13:02:40;;;;;;;15.95;9.05;;;;;;;29.76;38.67;99994.83;1745397;80;21205;-81
2021/08/16 13:05:47;;;;;;;15.20;8.70;;;;;;;29.78;38.70;99993.97;1761973;80;21810;-80
2021/08/16 13:08:53;;;;;;;15.53;8.43;;;;;;;29.82;38.41;99997.55;1756090;80;21331;-81
2021/08/16 13:12:00;;;;;;;15.45;9.18;;;;;;;29.83;38.02;99982.30;1708922;83;21197;-80
2021/08/16 13:15:06;;;;;;;15.48;9.60;;;;;;;29.86;38.44;99987.33;1680507;84;21323;-81
2021/08/16 13:18:13;;;;;;;11.75;7.58;;;;;;;29.84;38.22;99983.99;1678742;84;21262;-80
2021/08/16 13:21:20;;;;;;;12.85;8.65;;;;;;;29.76;38.56;99978.50;1672315;84;21577;-81
2021/08/16 13:24:25;;;;;;;21.95;8.75;;;;;;;29.70;38.16;99979.75;1726096;82;21396;-81
2021/08/16 13:27:31;;;;;;;14.25;8.58;;;;;;;29.61;38.19;99980.21;1677660;84;21775;-81
2021/08/16 13:30:38;;;;;;;19.98;8.88;;;;;;;29.57;38.81;99981.97;1687171;83;21393;-81
2021/08/16 13:33:43;;;;;;;12.35;7.50;;;;;;;29.57;38.11;99984.80;1672628;84;21297;-80
2021/08/16 13:36:49;;;;;;;13.95;8.28;;;;;;;29.55;38.48;99976.66;1731051;81;21779;-80
2021/08/16 13:39:54;;;;;;;15.58;7.85;;;;;;;29.54;38.23;99986.20;1752468;80;21867;-80
2021/08/16 13:43:00;;;;;;;16.27;6.97;;;;;;;29.40;38.91;99972.66;1714960;82;21387;-81
2021/08/16 13:46:06;;;;;;;22.73;8.23;;;;;;;29.40;38.91;99972.66;1713103;83;21319;-80
2021/08/16 13:49:12;;;;;;;16.27;7.75;;;;;;;29.40;39.06;99974.07;1718360;82;21212;-81
2021/08/16 13:52:18;;;;;;;11.08;7.47;;;;;;;29.40;38.94;99976.31;1721284;82;21327;-80
2021/08/16 13:55:23;;;;;;;13.68;7.30;;;;;;;29.40;39.10;99976.31;1708778;83;21347;-80
2021/08/16 13:58:28;;;;;;;13.45;7.20;;;;;;;29.44;38.96;99977.95;1718524;83;21252;-81
2021/08/16 14:01:35;;;;;;;14.28;7.40;;;;;;;29.46;38.32;99975.67;1710754;83;21784;-80
2021/08/16 14:04:41;;;;;;;12.95;7.65;;;;;;;29.47;38.28;99971.70;1727658;82;21208;-80
2021/08/16 14:07:48;;;;;;;16.52;7.78;;;;;;;29.46;38.67;99975.67;1722458;83;21190;-80
2021/08/16 14:10:54;;;;;;;11.08;7.33;;;;;;;29.45;39.13;99965.52;1736204;82;21601;-80
2021/08/16 14:14:00;;;;;;;15.10;7.20;;;;;;;29.42;38.76;99966.16;1746306;81;21299;-81
2021/08/16 14:17:06;;;;;;;14.20;8.18;;;;;;;29.38;38.78;99969.34;1737093;82;21326;-80
2021/08/16 14:20:13;;;;;;;13.68;7.20;;;;;;;29.33;38.30;99969.43;1725541;82;21180;-80